Time;durP1;ratioP1;P1;durP2;ratioP2;P2;SDS_P1;SDS_P2;PMS_P1;PMS_P2;Temp;Humidity;BMP_temperature;BMP_pressure;BME280_temperature;BME280_humidity;BME280_pressure;Samples;Min_cycle;Max_cycle;Signal;HPM_P1;HPM_P2
2022/10/09 00:01:30;;;;;;;67.70;63.88;;;;;;;17.59;73.46;101319.25;4997376;28;102313;-53
2022/10/09 00:03:57;;;;;;;64.40;60.88;;;;;;;17.59;73.44;101316.50;4995605;28;104308;-53
2022/10/09 00:06:26;;;;;;;66.78;63.00;;;;;;;17.59;73.05;101322.00;4994358;28;102341;-53
2022/10/09 00:08:52;;;;;;;62.03;58.45;;;;;;;17.59;73.21;101322.00;4997076;28;102163;-53
2022/10/09 00:11:21;;;;;;;69.57;65.57;;;;;;;17.59;73.34;101322.00;4991276;28;102315;-53
2022/10/09 00:13:53;;;;;;;61.10;57.78;;;;;;;17.58;73.05;101314.88;4991852;28;104043;-53
2022/10/09 00:16:21;;;;;;;67.35;63.58;;;;;;;17.59;73.25;101311.00;4991939;28;102511;-53
2022/10/09 00:18:49;;;;;;;61.95;58.53;;;;;;;17.58;73.09;101304.69;4984327;28;101959;-53
2022/10/09 00:21:19;;;;;;;63.00;59.47;;;;;;;17.58;73.44;101303.88;4997622;28;102618;-53
2022/10/09 00:23:45;;;;;;;68.22;64.38;;;;;;;17.58;73.46;101309.38;4996334;28;103987;-54
2022/10/09 00:26:12;;;;;;;70.15;66.20;;;;;;;17.57;73.49;101307.75;4982790;28;102493;-54
2022/10/09 00:28:39;;;;;;;70.43;66.47;;;;;;;17.58;73.21;101307.44;4990992;28;102618;-53
2022/10/09 00:31:06;;;;;;;66.32;62.60;;;;;;;17.58;73.28;101303.88;4987143;28;102356;-53
2022/10/09 00:33:34;;;;;;;70.65;66.65;;;;;;;17.58;72.96;101298.38;4985520;28;103889;-53
2022/10/09 00:36:03;;;;;;;67.93;64.13;;;;;;;17.57;73.46;101297.56;4977822;28;102478;-54
2022/10/09 00:38:30;;;;;;;65.18;61.58;;;;;;;17.57;73.10;101296.75;4976860;28;102249;-53
2022/10/09 00:40:56;;;;;;;67.63;63.78;;;;;;;17.58;73.01;101303.88;4977848;28;102523;-53
2022/10/09 00:43:40;;;;;;;69.93;66.05;;;;;;;17.58;73.09;101295.63;4979124;28;104606;-53
2022/10/09 00:46:22;;;;;;;61.83;58.33;;;;;;;17.58;73.67;101287.34;4982325;28;102272;-54
2022/10/09 00:48:57;;;;;;;59.13;55.75;;;;;;;17.57;73.39;101285.72;4995627;28;102435;-53
2022/10/09 00:51:26;;;;;;;64.10;60.65;;;;;;;17.57;73.21;101291.25;4997071;28;102362;-53
2022/10/09 00:53:52;;;;;;;;;;;;;;;17.56;73.43;101290.41;4995246;28;103929;-53
2022/10/09 00:56:18;;;;;;;42.35;39.75;;;;;;;17.57;73.41;101292.06;4997133;28;101985;-53
2022/10/09 00:58:50;;;;;;;53.85;50.80;;;;;;;17.57;73.00;101288.50;4996779;28;102235;-56
2022/10/09 01:01:17;;;;;;;53.38;50.33;;;;;;;17.57;73.57;101296.75;4992623;28;102478;-53
2022/10/09 01:03:44;;;;;;;60.67;57.25;;;;;;;17.57;73.08;101299.50;4998886;28;104772;-54
2022/10/09 01:06:16;;;;;;;59.90;56.53;;;;;;;17.57;73.41;101294.00;5000898;28;102343;-54
2022/10/09 01:08:51;;;;;;;66.10;62.38;;;;;;;17.56;73.41;101292.34;5010178;28;102033;-54
2022/10/09 01:11:29;;;;;;;57.83;54.55;;;;;;;17.54;73.06;101298.97;4987719;28;102234;-53
2022/10/09 01:14:03;;;;;;;61.20;57.83;;;;;;;17.56;73.01;101290.41;5003560;28;103887;-53
2022/10/09 01:16:34;;;;;;;58.92;55.65;;;;;;;17.54;73.33;101296.22;4994231;28;102220;-53
2022/10/09 01:19:11;;;;;;;58.22;54.83;;;;;;;17.55;73.06;101297.03;4995397;28;102459;-53
2022/10/09 01:21:43;;;;;;;64.15;60.63;;;;;;;17.56;73.00;101286.84;4997411;28;102279;-53
2022/10/09 01:24:23;;;;;;;66.45;62.88;;;;;;;17.56;73.30;101292.34;4990765;28;104228;-53
2022/10/09 01:27:09;;;;;;;61.70;58.15;;;;;;;17.55;73.44;101294.28;4986282;28;102284;-54
2022/10/09 01:29:42;;;;;;;58.28;55.00;;;;;;;17.56;73.48;101289.59;4990919;28;102266;-53
2022/10/09 01:32:12;;;;;;;63.55;60.08;;;;;;;17.54;73.05;101287.97;4996967;28;102375;-53
2022/10/09 01:34:41;;;;;;;63.20;59.72;;;;;;;17.54;73.07;101289.91;4984446;28;107968;-53
2022/10/09 01:37:10;;;;;;;64.90;61.33;;;;;;;17.56;73.04;101289.59;4996439;28;102229;-53
2022/10/09 01:39:40;;;;;;;65.00;61.40;;;;;;;17.54;73.34;101285.22;4994321;28;102095;-53
2022/10/09 01:42:10;;;;;;;61.63;58.28;;;;;;;17.54;73.38;101293.47;4996281;28;102601;-53
2022/10/09 01:44:37;;;;;;;67.40;63.65;;;;;;;17.53;73.01;101289.09;4994122;28;103883;-53
2022/10/09 01:47:04;;;;;;;65.10;61.25;;;;;;;17.53;73.29;101291.84;4992769;28;102389;-53
2022/10/09 01:49:41;;;;;;;68.80;64.95;;;;;;;17.54;73.03;101293.47;4975556;28;102400;-53
2022/10/09 01:52:19;;;;;;;62.72;59.28;;;;;;;17.53;73.16;101283.59;4990136;28;102363;-53
2022/10/09 01:54:58;;;;;;;63.85;60.30;;;;;;;17.53;73.35;101283.59;4980753;28;103929;-53
2022/10/09 01:57:34;;;;;;;58.17;54.92;;;;;;;17.54;73.11;101287.16;4976249;28;102046;-53
2022/10/09 02:00:06;;;;;;;61.15;57.85;;;;;;;17.53;73.54;101275.34;4983944;28;102380;-54
2022/10/09 02:02:33;;;;;;;63.22;59.78;;;;;;;17.53;72.99;101286.34;4986636;28;102444;-54
2022/10/09 02:05:00;;;;;;;64.47;60.80;;;;;;;17.53;73.10;101286.34;4993510;28;103885;-53
2022/10/09 02:07:29;;;;;;;67.93;64.13;;;;;;;17.53;73.52;101286.34;4983934;28;101917;-53
2022/10/09 02:09:57;;;;;;;71.38;67.45;;;;;;;17.53;72.90;101282.78;4975505;28;102023;-53
2022/10/09 02:12:28;;;;;;;64.80;61.28;;;;;;;17.52;73.19;101283.88;4996025;28;102300;-53
2022/10/09 02:14:55;;;;;;;66.45;62.65;;;;;;;17.52;72.98;101276.44;4993790;28;104036;-53
2022/10/09 02:17:29;;;;;;;68.85;65.05;;;;;;;17.52;73.30;101284.69;4995702;28;102488;-54
2022/10/09 02:19:59;;;;;;;60.40;56.97;;;;;;;17.51;73.34;101283.06;4993120;28;102280;-53
2022/10/09 02:22:30;;;;;;;63.65;60.15;;;;;;;17.52;72.92;101284.69;4982275;28;102075;-53
2022/10/09 02:24:59;;;;;;;63.50;59.85;;;;;;;17.52;73.35;101295.69;4978197;28;103957;-53
2022/10/09 02:27:27;;;;;;;64.35;60.80;;;;;;;17.51;73.46;101294.06;4995508;28;102207;-53
2022/10/09 02:29:55;;;;;;;65.05;61.50;;;;;;;17.52;73.39;101289.38;5008295;28;102940;-54
2022/10/09 02:32:24;;;;;;;70.78;66.88;;;;;;;17.52;73.49;101295.69;5011501;28;102198;-53
2022/10/09 02:34:51;;;;;;;68.28;64.60;;;;;;;17.52;73.06;101294.88;5013214;28;103854;-53
2022/10/09 02:37:18;;;;;;;72.53;68.55;;;;;;;17.50;73.18;101295.19;5015455;28;102468;-53
2022/10/09 02:39:44;;;;;;;68.28;64.53;;;;;;;17.50;73.09;101295.19;5009202;28;102408;-53
2022/10/09 02:42:11;;;;;;;67.63;63.90;;;;;;;17.51;73.34;101302.31;5016409;28;102216;-53
2022/10/09 02:44:39;;;;;;;71.43;67.53;;;;;;;17.51;72.79;101305.06;5013288;28;104851;-53
2022/10/09 02:47:07;;;;;;;71.22;67.28;;;;;;;17.51;73.34;101299.56;4993487;28;102432;-52
2022/10/09 02:49:34;;;;;;;68.60;64.85;;;;;;;17.51;73.20;101304.25;4974820;28;102245;-53
2022/10/09 02:52:01;;;;;;;72.20;68.22;;;;;;;17.51;73.06;101307.03;4980368;28;102209;-52
2022/10/09 02:54:27;;;;;;;70.57;66.78;;;;;;;17.51;73.40;101309.78;4992479;28;103928;-53
2022/10/09 02:56:54;;;;;;;67.25;63.63;;;;;;;17.50;73.25;101308.97;4995324;28;102355;-53
2022/10/09 02:59:23;;;;;;;68.00;64.25;;;;;;;17.50;73.22;101303.44;4993034;28;102222;-53
2022/10/09 03:01:51;;;;;;;66.47;62.83;;;;;;;17.50;72.99;101308.97;4987757;28;102453;-53
2022/10/09 03:04:18;;;;;;;74.25;70.10;;;;;;;17.50;73.28;101308.97;4975967;28;103989;-53
2022/10/09 03:06:44;;;;;;;68.45;64.65;;;;;;;17.50;73.08;101314.47;4976660;28;102761;-53
2022/10/09 03:09:11;;;;;;;62.88;59.45;;;;;;;17.49;73.34;101307.34;4974803;28;102310;-53
2022/10/09 03:11:37;;;;;;;72.95;68.93;;;;;;;17.50;72.98;101303.44;4975938;28;102514;-53
2022/10/09 03:14:04;;;;;;;64.97;61.40;;;;;;;17.49;73.17;101301.00;4973953;28;104242;-54
2022/10/09 03:16:32;;;;;;;68.80;65.05;;;;;;;17.49;73.31;101296.31;4993917;28;102097;-53
2022/10/09 03:18:59;;;;;;;71.78;67.93;;;;;;;17.49;73.53;101296.31;4993652;28;102548;-53
2022/10/09 03:21:27;;;;;;;67.32;63.47;;;;;;;17.50;73.44;101291.63;4991181;28;102620;-54
2022/10/09 03:23:55;;;;;;;64.40;60.95;;;;;;;17.49;73.19;101290.81;4981155;28;103857;-54
2022/10/09 03:26:26;;;;;;;65.88;62.17;;;;;;;17.50;73.20;101297.13;4989712;28;102285;-53
2022/10/09 03:28:54;;;;;;;64.57;61.03;;;;;;;17.49;73.31;101301.81;4989585;28;102312;-53
2022/10/09 03:31:23;;;;;;;69.07;65.43;;;;;;;17.48;72.98;101300.19;4995354;28;102324;-53
2022/10/09 03:33:49;;;;;;;64.57;61.03;;;;;;;17.49;73.01;101301.81;4993992;28;104147;-53
2022/10/09 03:36:17;;;;;;;67.20;63.45;;;;;;;17.49;73.38;101301.00;4994090;28;102228;-53
2022/10/09 03:38:44;;;;;;;64.35;60.72;;;;;;;17.48;73.25;101300.19;4996453;28;102327;-54
2022/10/09 03:41:11;;;;;;;72.28;68.35;;;;;;;17.49;73.22;101301.00;4999002;28;102279;-53
2022/10/09 03:43:38;;;;;;;66.15;62.55;;;;;;;17.48;73.31;101291.91;4996835;28;103937;-53
2022/10/09 03:46:05;;;;;;;69.68;65.88;;;;;;;17.47;73.12;101293.06;4995632;28;102085;-53
2022/10/09 03:48:34;;;;;;;67.05;63.42;;;;;;;17.48;73.05;101289.16;4997330;28;102484;-54
2022/10/09 03:51:01;;;;;;;66.28;62.70;;;;;;;17.47;73.08;101290.31;4997571;28;102391;-53
2022/10/09 03:53:29;;;;;;;70.70;66.80;;;;;;;17.48;72.95;101285.59;4979969;28;104060;-53
2022/10/09 03:55:56;;;;;;;66.07;62.40;;;;;;;17.48;73.38;101289.16;4987461;28;102793;-54
2022/10/09 03:58:23;;;;;;;69.38;65.65;;;;;;;17.48;73.36;101288.34;4996880;28;102429;-53
2022/10/09 04:00:50;;;;;;;69.60;65.68;;;;;;;17.48;73.46;101286.41;4997575;28;102759;-53
2022/10/09 04:03:16;;;;;;;67.60;64.00;;;;;;;17.49;73.05;101289.97;4996612;28;103918;-53
2022/10/09 04:05:43;;;;;;;68.60;64.93;;;;;;;17.49;73.12;101285.31;4995407;28;102335;-53
2022/10/09 04:08:11;;;;;;;62.67;59.23;;;;;;;17.48;73.34;101291.91;4997028;28;102191;-53
2022/10/09 04:10:39;;;;;;;60.78;57.40;;;;;;;17.48;73.23;101291.91;4997831;28;102259;-53
2022/10/09 04:13:06;;;;;;;66.15;62.55;;;;;;;17.49;73.43;101290.81;4977175;28;103824;-53
2022/10/09 04:15:34;;;;;;;63.67;60.03;;;;;;;17.49;73.00;101290.81;4982298;28;102461;-53
2022/10/09 04:18:00;;;;;;;66.65;62.97;;;;;;;17.49;73.57;101290.81;4997011;28;102364;-53
2022/10/09 04:20:27;;;;;;;63.10;59.55;;;;;;;17.49;73.26;101289.97;4993311;28;102288;-53
2022/10/09 04:22:53;;;;;;;59.70;56.40;;;;;;;17.48;73.56;101297.41;4996415;28;104131;-53
2022/10/09 04:25:20;;;;;;;64.40;60.85;;;;;;;17.48;73.24;101289.16;5001956;28;102140;-54
2022/10/09 04:27:48;;;;;;;62.72;59.30;;;;;;;17.48;73.16;101299.38;5016680;28;102224;-53
2022/10/09 04:30:15;;;;;;;64.97;61.47;;;;;;;17.47;73.71;101293.06;5006334;28;102767;-53
2022/10/09 04:32:41;;;;;;;63.65;60.20;;;;;;;17.48;73.54;101299.38;5010093;28;103970;-53
2022/10/09 04:35:08;;;;;;;62.92;59.45;;;;;;;17.48;73.47;101305.69;5016695;28;102102;-53
2022/10/09 04:37:35;;;;;;;66.00;62.47;;;;;;;17.48;73.15;101302.94;5016608;28;102333;-53
2022/10/09 04:40:03;;;;;;;62.23;58.67;;;;;;;17.47;73.14;101295.81;5017795;28;102264;-53
2022/10/09 04:42:30;;;;;;;64.18;60.67;;;;;;;17.48;73.71;101302.13;5004133;28;104022;-53
2022/10/09 04:44:58;;;;;;;62.10;58.75;;;;;;;17.48;73.55;101305.69;5013294;27;102488;-54
2022/10/09 04:47:24;;;;;;;63.30;59.75;;;;;;;17.48;73.75;101300.19;5009584;28;102283;-54
2022/10/09 04:49:51;;;;;;;62.30;58.88;;;;;;;17.49;73.63;101301.00;5007327;28;102203;-53
2022/10/09 04:52:17;;;;;;;63.08;59.63;;;;;;;17.50;73.66;101308.16;5016267;28;103922;-53
2022/10/09 04:54:44;;;;;;;63.65;60.17;;;;;;;17.50;73.30;101302.66;5014657;28;102367;-53
2022/10/09 04:57:11;;;;;;;60.00;56.85;;;;;;;17.50;73.52;101303.44;5014115;27;102813;-54
2022/10/09 04:59:37;;;;;;;70.13;66.28;;;;;;;17.52;73.92;101301.19;5005547;28;102152;-53
2022/10/09 05:02:05;;;;;;;67.07;63.40;;;;;;;17.51;73.76;101299.56;5003527;28;104538;-53
2022/10/09 05:04:32;;;;;;;68.07;64.35;;;;;;;17.54;74.63;101304.47;5005051;28;102494;-53
2022/10/09 05:06:58;;;;;;;71.65;67.78;;;;;;;17.54;74.77;101298.97;5010399;28;102015;-53
2022/10/09 05:09:25;;;;;;;66.68;63.03;;;;;;;17.56;74.95;101300.59;5014713;28;102565;-53
2022/10/09 05:11:51;;;;;;;67.75;63.83;;;;;;;17.57;75.02;101307.75;5016206;28;104590;-53
2022/10/09 05:14:18;;;;;;;66.32;62.67;;;;;;;17.57;75.38;101302.25;5016294;28;102184;-53
2022/10/09 05:16:44;;;;;;;67.40;63.75;;;;;;;17.58;75.13;101309.38;5012824;28;102299;-53
2022/10/09 05:19:17;;;;;;;64.60;61.10;;;;;;;17.58;75.62;101310.19;4998963;28;102983;-53
2022/10/09 05:21:43;;;;;;;61.17;57.85;;;;;;;17.58;75.20;101315.69;4999421;28;104081;-53
2022/10/09 05:24:10;;;;;;;61.08;57.42;;;;;;;17.59;75.51;101319.25;5008532;28;102255;-52
2022/10/09 05:26:36;;;;;;;61.17;57.92;;;;;;;17.59;74.87;101322.00;5001788;28;102286;-52
2022/10/09 05:29:03;;;;;;;59.47;56.25;;;;;;;17.59;74.96;101322.00;4998279;28;102319;-52
2022/10/09 05:31:30;;;;;;;59.72;56.38;;;;;;;17.59;74.81;101316.50;5005827;28;103855;-53
2022/10/09 05:33:59;;;;;;;57.83;54.53;;;;;;;17.58;74.35;101315.69;5004334;28;102353;-52
2022/10/09 05:36:27;;;;;;;59.65;56.30;;;;;;;17.59;74.09;101322.81;5011461;28;103186;-54
2022/10/09 05:38:54;;;;;;;53.70;50.67;;;;;;;17.58;74.03;101323.13;5010450;28;102452;-54
2022/10/09 05:41:20;;;;;;;56.90;53.75;;;;;;;17.58;74.26;101325.88;4999208;28;103929;-53
2022/10/09 05:43:49;;;;;;;54.83;51.70;;;;;;;17.58;74.17;101325.88;5009985;28;102420;-53
2022/10/09 05:46:17;;;;;;;54.03;51.03;;;;;;;17.56;74.03;101328.13;5010805;28;102303;-53
2022/10/09 05:48:49;;;;;;;60.08;56.80;;;;;;;17.56;73.96;101325.38;5007005;27;102671;-53
2022/10/09 05:51:18;;;;;;;54.10;51.17;;;;;;;17.56;73.76;101333.63;5003163;28;103920;-53
2022/10/09 05:53:47;;;;;;;56.40;53.20;;;;;;;17.56;73.48;101328.13;5005728;27;102295;-53
2022/10/09 05:56:17;;;;;;;55.42;52.30;;;;;;;17.55;73.94;101321.78;4998716;28;102236;-54
2022/10/09 05:58:48;;;;;;;53.03;50.08;;;;;;;17.56;73.34;101325.38;5007034;28;102267;-53
2022/10/09 06:01:14;;;;;;;57.92;54.72;;;;;;;17.54;73.92;101334.75;5003326;28;104162;-53
2022/10/09 06:03:41;;;;;;;58.22;55.03;;;;;;;17.56;73.88;101328.13;5015126;28;102540;-54
2022/10/09 06:06:07;;;;;;;62.50;58.97;;;;;;;17.56;73.78;101325.38;5010746;28;103617;-53
2022/10/09 06:08:35;;;;;;;62.28;58.80;;;;;;;17.56;73.67;101339.13;5001039;28;103772;-53
2022/10/09 06:11:11;;;;;;;58.13;54.95;;;;;;;17.55;73.82;101327.31;5005016;28;103998;-53
2022/10/09 06:13:38;;;;;;;60.25;57.00;;;;;;;17.56;73.73;101328.13;5009502;28;102514;-53
2022/10/09 06:16:05;;;;;;;59.95;56.67;;;;;;;17.59;73.53;101333.81;4990071;28;104632;-53
2022/10/09 06:18:33;;;;;;;60.80;57.42;;;;;;;17.59;74.07;101333.00;4990223;28;104064;-53
2022/10/09 06:21:01;;;;;;;64.78;61.22;;;;;;;17.60;74.02;101334.63;5004615;28;104166;-53
2022/10/09 06:23:30;;;;;;;61.80;58.47;;;;;;;17.59;74.16;101335.78;5006439;28;102087;-53
2022/10/09 06:25:59;;;;;;;65.18;61.65;;;;;;;17.59;73.94;101344.03;5010012;28;102105;-53
2022/10/09 06:28:27;;;;;;;64.97;61.33;;;;;;;17.59;73.77;101330.25;5008101;28;102479;-54
2022/10/09 06:30:58;;;;;;;60.65;57.30;;;;;;;17.59;74.12;101324.75;5006844;28;104016;-53
2022/10/09 06:33:27;;;;;;;65.28;61.83;;;;;;;17.59;73.80;101328.31;5015123;28;102932;-53
2022/10/09 06:35:58;;;;;;;60.38;57.08;;;;;;;17.59;73.62;101322.00;5014510;28;102307;-53
2022/10/09 06:38:27;;;;;;;60.13;56.78;;;;;;;17.59;73.64;101322.81;5015498;28;102133;-53
2022/10/09 06:40:54;;;;;;;64.38;60.90;;;;;;;17.59;73.84;101322.00;5005209;28;104123;-53
2022/10/09 06:43:20;;;;;;;60.50;57.15;;;;;;;17.59;73.49;101316.50;4997751;28;102132;-53
2022/10/09 06:45:48;;;;;;;66.38;62.78;;;;;;;17.60;73.46;101318.13;5000218;28;102320;-53
2022/10/09 06:48:14;;;;;;;65.95;62.20;;;;;;;17.60;73.35;101310.72;5014856;28;102545;-53
2022/10/09 06:50:41;;;;;;;66.63;62.92;;;;;;;17.60;73.30;101312.63;5014034;28;104881;-53
2022/10/09 06:53:08;;;;;;;64.40;60.97;;;;;;;17.62;73.55;101315.91;5002809;28;102305;-53
2022/10/09 06:55:35;;;;;;;67.47;63.75;;;;;;;17.61;73.59;101311.53;4994855;28;102277;-53
2022/10/09 06:58:02;;;;;;;65.60;62.05;;;;;;;17.62;73.55;101310.41;4996245;28;102518;-53
2022/10/09 07:00:29;;;;;;;70.30;66.47;;;;;;;17.62;72.99;101315.91;5010480;28;103913;-53
2022/10/09 07:02:57;;;;;;;69.00;65.28;;;;;;;17.63;73.13;101309.28;5000751;28;102359;-53
2022/10/09 07:05:23;;;;;;;67.93;64.15;;;;;;;17.63;73.24;101312.00;5011792;28;102268;-53
2022/10/09 07:07:51;;;;;;;70.55;66.72;;;;;;;17.63;73.11;101312.84;5015166;28;102535;-53
2022/10/09 07:10:17;;;;;;;65.85;62.25;;;;;;;17.64;73.18;101310.91;5014002;28;103930;-53
2022/10/09 07:12:44;;;;;;;66.70;63.15;;;;;;;17.66;73.31;101314.16;5002463;28;102542;-53
2022/10/09 07:15:10;;;;;;;74.85;70.85;;;;;;;17.66;73.31;101317.72;5001397;28;102218;-53
2022/10/09 07:17:37;;;;;;;70.80;67.05;;;;;;;17.67;73.34;101307.53;5008631;28;102276;-54
2022/10/09 07:20:12;;;;;;;66.38;62.75;;;;;;;17.68;73.33;101315.50;5001842;28;108037;-52
2022/10/09 07:22:39;;;;;;;65.90;62.40;;;;;;;17.69;73.29;101314.38;4998652;28;102451;-53
2022/10/09 07:25:08;;;;;;;65.93;62.38;;;;;;;17.68;73.07;101315.50;5007978;28;102196;-53
2022/10/09 07:27:35;;;;;;;67.75;64.10;;;;;;;17.67;73.45;101308.38;5011309;28;102595;-53
2022/10/09 07:30:03;;;;;;;67.15;63.47;;;;;;;17.68;73.38;101304.50;5002781;28;104862;-53
2022/10/09 07:32:30;;;;;;;68.97;65.20;;;;;;;17.70;73.31;101304.19;5017104;28;102088;-53
2022/10/09 07:34:57;;;;;;;72.78;68.85;;;;;;;17.71;72.85;101305.81;5006909;28;102566;-53
2022/10/09 07:37:25;;;;;;;70.05;66.32;;;;;;;17.72;72.78;101299.19;5009129;28;102204;-53
2022/10/09 07:39:51;;;;;;;66.50;62.92;;;;;;;17.72;72.76;101296.44;5017118;28;103890;-53
2022/10/09 07:42:18;;;;;;;64.53;61.05;;;;;;;17.74;72.91;101299.69;5017059;28;102334;-53
2022/10/09 07:44:46;;;;;;;69.90;66.10;;;;;;;17.75;73.14;101304.09;5017226;28;102254;-53
2022/10/09 07:47:13;;;;;;;69.70;66.03;;;;;;;17.76;73.23;101301.06;5008218;28;102131;-53
2022/10/09 07:49:40;;;;;;;72.22;68.28;;;;;;;17.76;72.92;101303.00;5014111;28;104144;-53
2022/10/09 07:52:06;;;;;;;71.55;67.80;;;;;;;17.77;73.14;101319.19;5001756;28;102790;-53
2022/10/09 07:54:34;;;;;;;74.10;70.15;;;;;;;17.79;73.24;101305.13;5016033;28;101967;-53
2022/10/09 07:57:01;;;;;;;69.90;66.00;;;;;;;17.78;73.40;101303.53;5018087;28;102207;-53
2022/10/09 07:59:28;;;;;;;71.40;67.45;;;;;;;17.80;72.87;101306.75;5016559;28;103971;-53
2022/10/09 08:01:54;;;;;;;74.97;70.97;;;;;;;17.80;72.83;101308.72;5007696;28;102546;-53
2022/10/09 08:04:21;;;;;;;74.88;70.93;;;;;;;17.80;73.40;101322.47;5012860;28;102314;-53
2022/10/09 08:06:48;;;;;;;75.13;71.05;;;;;;;17.80;73.02;101311.47;4998206;28;102570;-53
2022/10/09 08:09:16;;;;;;;78.65;74.35;;;;;;;17.79;72.89;101307.91;5005078;28;103919;-53
2022/10/09 08:11:44;;;;;;;75.77;71.60;;;;;;;17.82;73.09;101301.78;5010368;28;102426;-53
2022/10/09 08:14:12;;;;;;;72.75;68.85;;;;;;;17.82;72.95;101315.56;5002076;28;102333;-53
2022/10/09 08:16:38;;;;;;;73.95;69.97;;;;;;;17.84;72.61;101302.28;5001578;28;102151;-53
2022/10/09 08:19:05;;;;;;;77.93;73.60;;;;;;;17.85;73.00;101298.41;5005596;28;103736;-54
2022/10/09 08:21:32;;;;;;;79.43;75.22;;;;;;;17.86;72.76;101297.28;4997287;28;102062;-53
2022/10/09 08:23:59;;;;;;;81.25;76.78;;;;;;;17.87;73.08;101301.66;5006782;28;102524;-54
2022/10/09 08:26:28;;;;;;;74.95;70.88;;;;;;;17.87;73.15;101295.34;5005308;28;102467;-53
2022/10/09 08:28:57;;;;;;;82.35;78.00;;;;;;;17.86;72.88;101293.72;5013504;28;103919;-53
2022/10/09 08:31:25;;;;;;;74.38;70.38;;;;;;;17.87;72.92;101295.34;5001280;28;102377;-53
2022/10/09 08:33:52;;;;;;;73.70;69.83;;;;;;;17.86;72.93;101291.78;5000513;28;101938;-53
2022/10/09 08:36:19;;;;;;;84.95;80.40;;;;;;;17.87;72.63;101287.91;5000657;28;102665;-53
2022/10/09 08:38:46;;;;;;;82.53;78.20;;;;;;;17.88;73.04;101294.22;5015884;28;103837;-53
2022/10/09 08:41:20;;;;;;;81.85;77.55;;;;;;;17.87;72.54;101293.41;5016805;28;102371;-53
2022/10/09 08:43:52;;;;;;;85.15;80.35;;;;;;;17.88;72.49;101296.97;4999205;28;102242;-53
2022/10/09 08:46:25;;;;;;;78.82;74.50;;;;;;;17.87;72.28;101289.84;4996919;28;102349;-53
2022/10/09 08:48:52;;;;;;;78.57;74.40;;;;;;;17.86;72.44;101297.28;4976638;28;103990;-53
2022/10/09 08:51:23;;;;;;;84.10;79.68;;;;;;;17.86;72.70;101300.03;4993774;28;102151;-53
2022/10/09 08:53:55;;;;;;;79.90;75.45;;;;;;;17.87;72.03;101304.41;4996032;28;102231;-53
2022/10/09 08:56:24;;;;;;;81.25;76.63;;;;;;;17.87;72.18;101301.66;4987524;28;102418;-53
2022/10/09 08:58:50;;;;;;;80.18;75.95;;;;;;;17.87;72.18;101300.84;4995741;28;104053;-53
2022/10/09 09:01:28;;;;;;;81.25;76.95;;;;;;;17.88;71.86;101303.28;4996211;28;102007;-54
2022/10/09 09:04:37;;;;;;;72.73;68.80;;;;;;;17.87;71.83;101301.66;4984811;28;104511;-53
2022/10/09 09:07:16;;;;;;;66.55;62.67;;;;;;;17.87;72.41;101309.13;4975567;28;102233;-53
2022/10/09 09:09:53;;;;;;;74.93;70.90;;;;;;;17.88;72.05;101302.47;5006753;28;103655;-54
2022/10/09 09:12:28;;;;;;;82.05;77.57;;;;;;;17.89;71.52;101299.44;4998379;28;102071;-54
2022/10/09 09:15:08;;;;;;;79.07;74.80;;;;;;;17.89;71.27;101299.44;4995354;28;102366;-54
2022/10/09 09:17:45;;;;;;;75.28;71.28;;;;;;;17.88;71.74;101297.78;4997326;28;102420;-53
2022/10/09 09:20:18;;;;;;;81.88;77.32;;;;;;;17.88;71.74;101299.72;5011929;28;104064;-53
2022/10/09 09:22:47;;;;;;;83.80;79.25;;;;;;;17.89;71.96;101304.94;5015610;28;102355;-53
2022/10/09 09:25:20;;;;;;;85.07;80.38;;;;;;;17.89;71.17;101299.44;5006001;28;103083;-53
2022/10/09 09:27:47;;;;;;;86.72;82.13;;;;;;;17.89;72.14;101309.63;4999782;28;103747;-53
2022/10/09 09:30:18;;;;;;;84.95;80.30;;;;;;;17.88;71.47;101303.28;4999376;28;103427;-53
2022/10/09 09:32:58;;;;;;;80.90;76.65;;;;;;;17.87;72.21;101312.69;5016680;28;102417;-53
2022/10/09 09:35:33;;;;;;;79.85;75.50;;;;;;;17.88;71.38;101303.28;4994091;28;102263;-55
2022/10/09 09:37:59;;;;;;;78.65;74.35;;;;;;;17.88;71.69;101306.03;4996498;28;101949;-53
2022/10/09 09:40:31;;;;;;;88.38;83.72;;;;;;;17.88;71.80;101314.31;4995181;28;103954;-53
2022/10/09 09:42:59;;;;;;;85.85;81.25;;;;;;;17.88;72.13;101308.78;4995797;28;102324;-53
2022/10/09 09:45:28;;;;;;;85.82;81.18;;;;;;;17.88;71.91;101311.56;4995461;28;102253;-54
2022/10/09 09:48:00;;;;;;;87.05;82.43;;;;;;;17.88;71.58;101308.78;4996569;28;102384;-53
2022/10/09 09:50:28;;;;;;;83.97;79.55;;;;;;;17.89;71.29;101315.97;4995132;28;104058;-53
2022/10/09 09:52:56;;;;;;;85.47;80.85;;;;;;;17.88;71.90;101299.72;4995845;28;103620;-53
2022/10/09 09:55:26;;;;;;;82.47;78.03;;;;;;;17.88;71.61;101300.53;4995455;28;102334;-53
2022/10/09 09:58:00;;;;;;;85.88;81.20;;;;;;;17.88;71.48;101308.78;4998337;28;102230;-53
2022/10/09 10:00:27;;;;;;;85.22;80.72;;;;;;;17.88;71.80;101303.28;5014160;28;103982;-53
2022/10/09 10:03:11;;;;;;;91.55;86.68;;;;;;;17.88;71.93;101292.28;5012527;28;102362;-53
2022/10/09 10:05:39;;;;;;;84.20;79.70;;;;;;;17.88;71.81;101292.28;5002977;28;102086;-54
2022/10/09 10:08:14;;;;;;;86.30;81.63;;;;;;;17.88;72.11;101297.78;5006315;28;102080;-54
2022/10/09 10:10:45;;;;;;;86.43;81.82;;;;;;;17.88;71.86;101292.28;5008679;28;104200;-54
2022/10/09 10:13:14;;;;;;;82.90;78.50;;;;;;;17.87;72.21;101296.16;5012603;28;102484;-53
2022/10/09 10:15:48;;;;;;;85.88;81.22;;;;;;;17.87;71.78;101296.16;5005666;28;102077;-53
2022/10/09 10:18:17;;;;;;;79.63;75.22;;;;;;;17.86;72.15;101285.47;5006078;28;102425;-54
2022/10/09 10:20:46;;;;;;;86.20;81.38;;;;;;;17.85;71.80;101281.91;5009895;28;103940;-53
2022/10/09 10:23:21;;;;;;;;;;;;;;;17.85;71.92;101268.13;5004430;28;102400;-53
2022/10/09 10:25:49;;;;;;;55.83;52.67;;;;;;;17.86;71.87;101278.00;5001606;28;102173;-54
2022/10/09 10:28:21;;;;;;;63.00;59.33;;;;;;;17.84;71.88;101274.75;5006242;28;102247;-54
2022/10/09 10:30:50;;;;;;;68.93;64.97;;;;;;;17.84;72.20;101277.50;4993630;28;103930;-54
2022/10/09 10:33:23;;;;;;;78.00;73.77;;;;;;;17.85;71.85;101279.16;5004244;28;102667;-54
2022/10/09 10:35:52;;;;;;;75.90;71.72;;;;;;;17.85;71.77;101267.28;5002057;28;102371;-54
2022/10/09 10:38:25;;;;;;;78.28;74.15;;;;;;;17.85;71.91;101267.28;5013552;28;102181;-54
2022/10/09 10:40:56;;;;;;;80.10;75.85;;;;;;;17.84;71.76;101258.22;5003255;28;107809;-53
2022/10/09 10:43:31;;;;;;;76.10;71.95;;;;;;;17.83;71.82;101256.59;4999859;28;102414;-53
2022/10/09 10:46:05;;;;;;;76.88;72.63;;;;;;;17.83;72.11;101259.34;4993481;28;102288;-53
2022/10/09 10:48:38;;;;;;;72.65;68.80;;;;;;;17.83;72.10;101259.34;5013163;28;102403;-54
2022/10/09 10:51:23;;;;;;;75.63;71.55;;;;;;;17.83;71.74;101250.28;5003178;28;103884;-53
2022/10/09 10:54:02;;;;;;;70.63;66.78;;;;;;;17.82;71.96;101252.22;5002146;28;102141;-53
2022/10/09 10:56:30;;;;;;;;;;;;;;;17.82;71.97;101246.72;5004378;28;102082;-53
2022/10/09 10:59:16;;;;;;;47.63;44.87;;;;;;;17.82;71.85;101243.97;5002652;28;102349;-53
2022/10/09 11:01:51;;;;;;;60.13;56.65;;;;;;;17.82;72.11;101238.47;5009340;28;103772;-53
2022/10/09 11:04:35;;;;;;;66.55;62.78;;;;;;;17.81;72.11;101242.31;5013055;28;102448;-53
2022/10/09 11:07:12;;;;;;;67.22;63.38;;;;;;;17.82;71.90;101243.16;5008193;28;102365;-53
2022/10/09 11:09:51;;;;;;;68.20;64.53;;;;;;;17.81;72.19;101253.31;5009996;28;102586;-53
2022/10/09 11:12:28;;;;;;;64.82;61.25;;;;;;;17.81;71.99;101247.00;5006490;28;108232;-52